sensor_id;sensor_type;location;lat;lon;timestamp;pressure;altitude;pressure_sealevel;temperature;humidity
15314;BME280;7757;52.626;4.746;2022-09-02T00:00:52;101719.69;;;20.21;52.49
15314;BME280;7757;52.626;4.746;2022-09-02T00:03:19;101722.50;;;19.96;54.00
15314;BME280;7757;52.626;4.746;2022-09-02T00:05:46;101724.75;;;19.99;54.54
15314;BME280;7757;52.626;4.746;2022-09-02T00:08:14;101719.34;;;20.35;53.43
15314;BME280;7757;52.626;4.746;2022-09-02T00:10:42;101719.13;;;19.39;55.98
15314;BME280;7757;52.626;4.746;2022-09-02T00:13:11;101717.84;;;19.42;55.40
15314;BME280;7757;52.626;4.746;2022-09-02T00:15:39;101715.88;;;19.92;54.18
15314;BME280;7757;52.626;4.746;2022-09-02T00:18:06;101709.28;;;19.99;54.20
15314;BME280;7757;52.626;4.746;2022-09-02T00:20:33;101705.94;;;19.61;54.25
15314;BME280;7757;52.626;4.746;2022-09-02T00:23:00;101701.59;;;19.60;54.29
15314;BME280;7757;52.626;4.746;2022-09-02T00:25:28;101707.13;;;19.22;55.07
15314;BME280;7757;52.626;4.746;2022-09-02T00:27:54;101706.13;;;19.66;55.41
15314;BME280;7757;52.626;4.746;2022-09-02T00:30:21;101702.41;;;19.42;55.48
15314;BME280;7757;52.626;4.746;2022-09-02T00:32:47;101707.44;;;19.39;55.22
15314;BME280;7757;52.626;4.746;2022-09-02T00:35:14;101710.38;;;19.98;55.08
15314;BME280;7757;52.626;4.746;2022-09-02T00:37:41;101709.00;;;19.71;54.71
15314;BME280;7757;52.626;4.746;2022-09-02T00:40:08;101703.59;;;19.89;54.54
15314;BME280;7757;52.626;4.746;2022-09-02T00:42:37;101695.25;;;20.02;54.77
15314;BME280;7757;52.626;4.746;2022-09-02T00:45:04;101701.44;;;19.30;55.29
15314;BME280;7757;52.626;4.746;2022-09-02T00:47:32;101700.94;;;19.83;55.70
15314;BME280;7757;52.626;4.746;2022-09-02T00:49:59;101705.22;;;19.23;55.32
15314;BME280;7757;52.626;4.746;2022-09-02T00:52:29;101696.66;;;19.26;55.20
15314;BME280;7757;52.626;4.746;2022-09-02T00:54:58;101690.56;;;19.55;54.90
15314;BME280;7757;52.626;4.746;2022-09-02T00:57:28;101690.50;;;19.37;55.94
15314;BME280;7757;52.626;4.746;2022-09-02T01:00:04;101695.41;;;19.04;55.98
15314;BME280;7757;52.626;4.746;2022-09-02T01:02:31;101681.22;;;19.51;55.15
15314;BME280;7757;52.626;4.746;2022-09-02T01:04:59;101682.25;;;19.75;54.99
15314;BME280;7757;52.626;4.746;2022-09-02T01:07:29;101684.53;;;19.04;57.05
15314;BME280;7757;52.626;4.746;2022-09-02T01:09:58;101676.34;;;19.78;55.20
15314;BME280;7757;52.626;4.746;2022-09-02T01:12:25;101672.84;;;19.28;55.75
15314;BME280;7757;52.626;4.746;2022-09-02T01:14:52;101675.09;;;19.31;55.51
15314;BME280;7757;52.626;4.746;2022-09-02T01:17:20;101672.75;;;18.91;56.99
15314;BME280;7757;52.626;4.746;2022-09-02T01:19:57;101667.66;;;18.77;57.86
15314;BME280;7757;52.626;4.746;2022-09-02T01:22:28;101669.56;;;19.69;55.31
15314;BME280;7757;52.626;4.746;2022-09-02T01:24:56;101672.38;;;19.13;55.91
15314;BME280;7757;52.626;4.746;2022-09-02T01:27:24;101672.16;;;19.39;56.09
15314;BME280;7757;52.626;4.746;2022-09-02T01:29:53;101664.16;;;19.19;55.36
15314;BME280;7757;52.626;4.746;2022-09-02T01:32:20;101664.84;;;18.59;57.58
15314;BME280;7757;52.626;4.746;2022-09-02T01:34:46;101655.91;;;19.08;56.54
15314;BME280;7757;52.626;4.746;2022-09-02T01:37:13;101657.19;;;19.30;55.13
15314;BME280;7757;52.626;4.746;2022-09-02T01:39:41;101658.31;;;19.65;54.70
15314;BME280;7757;52.626;4.746;2022-09-02T01:42:08;101656.13;;;19.31;56.22
15314;BME280;7757;52.626;4.746;2022-09-02T01:44:35;101648.41;;;18.85;55.41
15314;BME280;7757;52.626;4.746;2022-09-02T01:47:08;101646.25;;;18.93;56.35
15314;BME280;7757;52.626;4.746;2022-09-02T01:49:34;101652.66;;;19.67;55.66
15314;BME280;7757;52.626;4.746;2022-09-02T01:52:02;101646.94;;;19.57;55.34
15314;BME280;7757;52.626;4.746;2022-09-02T01:54:29;101649.06;;;20.21;54.09
15314;BME280;7757;52.626;4.746;2022-09-02T01:56:57;101653.66;;;19.54;53.77
15314;BME280;7757;52.626;4.746;2022-09-02T01:59:23;101643.69;;;19.48;54.69
15314;BME280;7757;52.626;4.746;2022-09-02T02:01:50;101641.09;;;18.85;57.02
15314;BME280;7757;52.626;4.746;2022-09-02T02:04:17;101648.56;;;19.15;56.24
15314;BME280;7757;52.626;4.746;2022-09-02T02:06:45;101645.16;;;19.01;55.13
15314;BME280;7757;52.626;4.746;2022-09-02T02:09:13;101641.53;;;19.75;54.76
15314;BME280;7757;52.626;4.746;2022-09-02T02:11:40;101641.56;;;18.45;56.27
15314;BME280;7757;52.626;4.746;2022-09-02T02:14:09;101643.09;;;19.64;54.80
15314;BME280;7757;52.626;4.746;2022-09-02T02:16:35;101639.84;;;19.13;55.70
15314;BME280;7757;52.626;4.746;2022-09-02T02:19:03;101642.47;;;19.19;55.54
15314;BME280;7757;52.626;4.746;2022-09-02T02:21:30;101631.84;;;19.18;54.66
15314;BME280;7757;52.626;4.746;2022-09-02T02:23:57;101629.91;;;19.25;54.79
15314;BME280;7757;52.626;4.746;2022-09-02T02:26:25;101629.94;;;18.69;55.80
15314;BME280;7757;52.626;4.746;2022-09-02T02:28:52;101630.81;;;19.37;54.43
15314;BME280;7757;52.626;4.746;2022-09-02T02:31:20;101625.03;;;18.84;56.23
15314;BME280;7757;52.626;4.746;2022-09-02T02:33:48;101626.72;;;18.85;55.74
15314;BME280;7757;52.626;4.746;2022-09-02T02:36:15;101622.28;;;19.58;54.65
15314;BME280;7757;52.626;4.746;2022-09-02T02:38:42;101631.56;;;20.17;53.19
15314;BME280;7757;52.626;4.746;2022-09-02T02:41:10;101628.22;;;19.67;53.23
15314;BME280;7757;52.626;4.746;2022-09-02T02:43:38;101626.28;;;19.13;55.49
15314;BME280;7757;52.626;4.746;2022-09-02T02:46:06;101624.94;;;19.22;54.00
15314;BME280;7757;52.626;4.746;2022-09-02T02:48:35;101627.63;;;18.72;56.00
15314;BME280;7757;52.626;4.746;2022-09-02T02:51:01;101619.72;;;19.63;53.99
15314;BME280;7757;52.626;4.746;2022-09-02T02:53:29;101627.63;;;19.04;55.22
15314;BME280;7757;52.626;4.746;2022-09-02T02:55:56;101627.91;;;19.14;55.23
15314;BME280;7757;52.626;4.746;2022-09-02T02:58:23;101630.53;;;18.02;57.14
15314;BME280;7757;52.626;4.746;2022-09-02T03:00:49;101620.16;;;19.42;54.76
15314;BME280;7757;52.626;4.746;2022-09-02T03:03:16;101620.63;;;19.14;54.95
15314;BME280;7757;52.626;4.746;2022-09-02T03:05:45;101622.59;;;19.07;55.98
15314;BME280;7757;52.626;4.746;2022-09-02T03:08:13;101612.00;;;19.96;54.38
15314;BME280;7757;52.626;4.746;2022-09-02T03:10:41;101611.19;;;19.41;55.05
15314;BME280;7757;52.626;4.746;2022-09-02T03:13:09;101609.03;;;19.07;55.41
15314;BME280;7757;52.626;4.746;2022-09-02T03:15:37;101606.16;;;19.20;56.06
15314;BME280;7757;52.626;4.746;2022-09-02T03:18:03;101608.03;;;19.81;53.77
15314;BME280;7757;52.626;4.746;2022-09-02T03:20:30;101605.09;;;18.47;56.42
15314;BME280;7757;52.626;4.746;2022-09-02T03:22:59;101600.88;;;19.25;56.03
15314;BME280;7757;52.626;4.746;2022-09-02T03:25:28;101602.06;;;18.68;56.45
15314;BME280;7757;52.626;4.746;2022-09-02T03:27:55;101608.09;;;19.74;54.29
15314;BME280;7757;52.626;4.746;2022-09-02T03:30:24;101602.97;;;18.56;57.46
15314;BME280;7757;52.626;4.746;2022-09-02T03:32:51;101603.53;;;18.33;58.39
15314;BME280;7757;52.626;4.746;2022-09-02T03:35:19;101599.53;;;18.35;58.22
15314;BME280;7757;52.626;4.746;2022-09-02T03:37:46;101594.84;;;19.48;56.03
15314;BME280;7757;52.626;4.746;2022-09-02T03:40:17;101599.00;;;18.20;57.66
15314;BME280;7757;52.626;4.746;2022-09-02T03:42:44;101592.28;;;19.10;57.46
15314;BME280;7757;52.626;4.746;2022-09-02T03:45:11;101589.00;;;18.59;57.67
15314;BME280;7757;52.626;4.746;2022-09-02T03:47:39;101586.78;;;18.42;57.50
15314;BME280;7757;52.626;4.746;2022-09-02T03:50:10;101586.41;;;18.39;58.44
15314;BME280;7757;52.626;4.746;2022-09-02T03:52:37;101588.09;;;20.17;54.24
15314;BME280;7757;52.626;4.746;2022-09-02T03:55:04;101581.81;;;19.14;56.49
15314;BME280;7757;52.626;4.746;2022-09-02T03:57:34;101582.94;;;19.06;56.26
15314;BME280;7757;52.626;4.746;2022-09-02T04:00:01;101583.50;;;19.69;55.68
15314;BME280;7757;52.626;4.746;2022-09-02T04:02:28;101583.38;;;19.64;55.62
15314;BME280;7757;52.626;4.746;2022-09-02T04:04:54;101585.53;;;19.37;55.56
15314;BME280;7757;52.626;4.746;2022-09-02T04:07:21;101581.25;;;18.87;56.29
15314;BME280;7757;52.626;4.746;2022-09-02T04:09:47;101579.69;;;18.98;56.63
15314;BME280;7757;52.626;4.746;2022-09-02T04:12:14;101575.72;;;19.00;56.30
15314;BME280;7757;52.626;4.746;2022-09-02T04:14:42;101579.81;;;20.30;53.33
15314;BME280;7757;52.626;4.746;2022-09-02T04:17:08;101573.41;;;19.76;55.04
15314;BME280;7757;52.626;4.746;2022-09-02T04:19:35;101572.97;;;20.39;53.91
15314;BME280;7757;52.626;4.746;2022-09-02T04:22:03;101580.31;;;19.90;54.86
15314;BME280;7757;52.626;4.746;2022-09-02T04:24:29;101569.59;;;19.47;55.89
15314;BME280;7757;52.626;4.746;2022-09-02T04:26:56;101574.63;;;20.10;54.03
15314;BME280;7757;52.626;4.746;2022-09-02T04:29:22;101573.56;;;19.81;54.81
15314;BME280;7757;52.626;4.746;2022-09-02T04:31:52;101562.38;;;19.60;55.72
15314;BME280;7757;52.626;4.746;2022-09-02T04:34:19;101567.22;;;19.87;54.52
15314;BME280;7757;52.626;4.746;2022-09-02T04:36:45;101567.63;;;19.36;56.40
15314;BME280;7757;52.626;4.746;2022-09-02T04:39:12;101564.72;;;19.86;54.57
15314;BME280;7757;52.626;4.746;2022-09-02T04:41:39;101564.94;;;20.14;54.27
15314;BME280;7757;52.626;4.746;2022-09-02T04:44:06;101560.28;;;19.91;55.16
15314;BME280;7757;52.626;4.746;2022-09-02T04:46:33;101566.31;;;19.75;55.02
15314;BME280;7757;52.626;4.746;2022-09-02T04:49:01;101560.78;;;20.30;54.41
15314;BME280;7757;52.626;4.746;2022-09-02T04:51:28;101568.38;;;19.80;54.59
15314;BME280;7757;52.626;4.746;2022-09-02T04:53:54;101564.00;;;18.57;57.48
15314;BME280;7757;52.626;4.746;2022-09-02T04:56:23;101561.97;;;19.56;55.26
15314;BME280;7757;52.626;4.746;2022-09-02T04:58:50;101562.91;;;19.98;54.54
15314;BME280;7757;52.626;4.746;2022-09-02T05:01:19;101558.22;;;20.17;53.72
15314;BME280;7757;52.626;4.746;2022-09-02T05:03:47;101569.09;;;20.17;54.14
15314;BME280;7757;52.626;4.746;2022-09-02T05:06:18;101571.44;;;20.01;54.79
15314;BME280;7757;52.626;4.746;2022-09-02T05:08:45;101566.59;;;20.03;54.21
15314;BME280;7757;52.626;4.746;2022-09-02T05:11:13;101569.41;;;18.81;56.75
15314;BME280;7757;52.626;4.746;2022-09-02T05:13:43;101565.38;;;18.34;57.69
15314;BME280;7757;52.626;4.746;2022-09-02T05:16:13;101556.00;;;19.29;56.32
15314;BME280;7757;52.626;4.746;2022-09-02T05:18:40;101556.94;;;19.60;55.70
15314;BME280;7757;52.626;4.746;2022-09-02T05:21:07;101563.09;;;19.67;54.98
15314;BME280;7757;52.626;4.746;2022-09-02T05:23:35;101558.28;;;19.51;55.70
15314;BME280;7757;52.626;4.746;2022-09-02T05:26:02;101560.81;;;20.41;53.63
15314;BME280;7757;52.626;4.746;2022-09-02T05:28:29;101563.53;;;19.64;54.49
15314;BME280;7757;52.626;4.746;2022-09-02T05:31:01;101549.53;;;19.96;54.83
15314;BME280;7757;52.626;4.746;2022-09-02T05:33:29;101556.22;;;19.82;53.90
15314;BME280;7757;52.626;4.746;2022-09-02T05:35:56;101553.16;;;20.62;53.13
15314;BME280;7757;52.626;4.746;2022-09-02T05:38:23;101542.69;;;19.94;54.68
15314;BME280;7757;52.626;4.746;2022-09-02T05:40:51;101544.84;;;19.74;55.00
15314;BME280;7757;52.626;4.746;2022-09-02T05:43:17;101547.66;;;19.49;56.03
15314;BME280;7757;52.626;4.746;2022-09-02T05:45:44;101556.00;;;19.84;55.14
15314;BME280;7757;52.626;4.746;2022-09-02T05:48:11;101551.97;;;20.04;54.71
15314;BME280;7757;52.626;4.746;2022-09-02T05:50:52;101550.47;;;19.42;55.47
15314;BME280;7757;52.626;4.746;2022-09-02T05:53:18;101554.91;;;19.85;55.23
15314;BME280;7757;52.626;4.746;2022-09-02T05:55:45;101547.06;;;19.95;54.39
15314;BME280;7757;52.626;4.746;2022-09-02T05:58:13;101545.03;;;19.42;55.66
15314;BME280;7757;52.626;4.746;2022-09-02T06:00:40;101544.28;;;20.01;54.31
15314;BME280;7757;52.626;4.746;2022-09-02T06:03:06;101551.00;;;20.40;53.67
15314;BME280;7757;52.626;4.746;2022-09-02T06:05:33;101545.81;;;20.09;54.59
15314;BME280;7757;52.626;4.746;2022-09-02T06:08:02;101537.78;;;20.55;53.27
15314;BME280;7757;52.626;4.746;2022-09-02T06:10:28;101542.63;;;20.42;53.21
15314;BME280;7757;52.626;4.746;2022-09-02T06:12:55;101539.13;;;20.76;53.11
15314;BME280;7757;52.626;4.746;2022-09-02T06:15:23;101532.50;;;20.84;53.11
15314;BME280;7757;52.626;4.746;2022-09-02T06:17:52;101540.66;;;20.95;52.63
15314;BME280;7757;52.626;4.746;2022-09-02T06:20:19;101541.00;;;20.64;53.36
15314;BME280;7757;52.626;4.746;2022-09-02T06:22:46;101537.50;;;21.10;52.66
15314;BME280;7757;52.626;4.746;2022-09-02T06:25:12;101539.84;;;20.83;52.76
15314;BME280;7757;52.626;4.746;2022-09-02T06:27:39;101540.41;;;21.43;51.75
15314;BME280;7757;52.626;4.746;2022-09-02T06:30:07;101538.28;;;21.34;51.70
15314;BME280;7757;52.626;4.746;2022-09-02T06:32:35;101541.25;;;20.97;53.50
15314;BME280;7757;52.626;4.746;2022-09-02T06:35:01;101538.72;;;21.54;52.05
15314;BME280;7757;52.626;4.746;2022-09-02T06:37:28;101543.28;;;21.65;51.00
15314;BME280;7757;52.626;4.746;2022-09-02T06:39:54;101533.53;;;21.29;52.35
15314;BME280;7757;52.626;4.746;2022-09-02T06:42:21;101539.91;;;21.46;52.05
15314;BME280;7757;52.626;4.746;2022-09-02T06:44:48;101536.88;;;20.85;53.90
15314;BME280;7757;52.626;4.746;2022-09-02T06:47:14;101537.34;;;20.82;53.96
15314;BME280;7757;52.626;4.746;2022-09-02T06:49:42;101530.00;;;21.40;52.12
15314;BME280;7757;52.626;4.746;2022-09-02T06:52:12;101526.72;;;21.15;51.96
15314;BME280;7757;52.626;4.746;2022-09-02T06:54:38;101535.78;;;21.32;52.22
15314;BME280;7757;52.626;4.746;2022-09-02T06:57:05;101531.56;;;20.78;53.74
15314;BME280;7757;52.626;4.746;2022-09-02T06:59:31;101536.03;;;21.70;51.36
15314;BME280;7757;52.626;4.746;2022-09-02T07:01:58;101533.53;;;21.81;50.98
15314;BME280;7757;52.626;4.746;2022-09-02T07:04:24;101533.66;;;22.14;50.48
15314;BME280;7757;52.626;4.746;2022-09-02T07:07:10;101535.47;;;21.68;50.92
15314;BME280;7757;52.626;4.746;2022-09-02T07:09:38;101542.03;;;21.96;50.75
15314;BME280;7757;52.626;4.746;2022-09-02T07:12:04;101534.78;;;22.01;50.72
15314;BME280;7757;52.626;4.746;2022-09-02T07:14:35;101540.13;;;21.56;51.11
15314;BME280;7757;52.626;4.746;2022-09-02T07:17:02;101524.09;;;22.28;49.75
15314;BME280;7757;52.626;4.746;2022-09-02T07:19:29;101524.34;;;22.60;48.95
15314;BME280;7757;52.626;4.746;2022-09-02T07:21:55;101528.69;;;23.11;47.70
15314;BME280;7757;52.626;4.746;2022-09-02T07:24:23;101527.41;;;22.80;47.85
15314;BME280;7757;52.626;4.746;2022-09-02T07:26:50;101530.13;;;23.18;47.70
15314;BME280;7757;52.626;4.746;2022-09-02T07:29:17;101527.66;;;23.55;46.48
15314;BME280;7757;52.626;4.746;2022-09-02T07:31:46;101517.72;;;23.98;45.28
15314;BME280;7757;52.626;4.746;2022-09-02T07:34:13;101519.66;;;23.97;45.26
15314;BME280;7757;52.626;4.746;2022-09-02T07:36:40;101528.56;;;24.78;43.97
15314;BME280;7757;52.626;4.746;2022-09-02T07:39:08;101516.41;;;24.59;43.68
15314;BME280;7757;52.626;4.746;2022-09-02T07:41:38;101528.22;;;23.57;44.79
15314;BME280;7757;52.626;4.746;2022-09-02T07:44:06;101524.91;;;23.55;46.35
15314;BME280;7757;52.626;4.746;2022-09-02T07:46:33;101524.59;;;23.73;45.50
15314;BME280;7757;52.626;4.746;2022-09-02T07:49:02;101509.13;;;23.19;46.69
15314;BME280;7757;52.626;4.746;2022-09-02T07:51:30;101507.56;;;22.51;47.94
15314;BME280;7757;52.626;4.746;2022-09-02T07:53:57;101516.16;;;22.43;48.10
15314;BME280;7757;52.626;4.746;2022-09-02T07:56:24;101504.34;;;22.71;48.28
15314;BME280;7757;52.626;4.746;2022-09-02T07:58:52;101514.50;;;22.92;46.82
15314;BME280;7757;52.626;4.746;2022-09-02T08:01:19;101512.19;;;22.67;48.16
15314;BME280;7757;52.626;4.746;2022-09-02T08:03:47;101504.50;;;22.48;47.56
15314;BME280;7757;52.626;4.746;2022-09-02T08:06:14;101508.88;;;22.49;47.60
15314;BME280;7757;52.626;4.746;2022-09-02T08:08:41;101512.75;;;22.86;47.28
15314;BME280;7757;52.626;4.746;2022-09-02T08:11:08;101501.28;;;22.51;48.39
15314;BME280;7757;52.626;4.746;2022-09-02T08:13:35;101502.16;;;23.28;46.25
15314;BME280;7757;52.626;4.746;2022-09-02T08:16:04;101505.41;;;22.87;46.93
15314;BME280;7757;52.626;4.746;2022-09-02T08:18:30;101498.06;;;22.87;47.42
15314;BME280;7757;52.626;4.746;2022-09-02T08:20:58;101496.97;;;22.88;47.60
15314;BME280;7757;52.626;4.746;2022-09-02T08:23:24;101495.81;;;22.84;47.60
15314;BME280;7757;52.626;4.746;2022-09-02T08:25:51;101493.88;;;23.01;46.70
15314;BME280;7757;52.626;4.746;2022-09-02T08:28:17;101487.81;;;23.16;46.62
15314;BME280;7757;52.626;4.746;2022-09-02T08:30:44;101492.53;;;23.42;45.92
15314;BME280;7757;52.626;4.746;2022-09-02T08:33:12;101494.22;;;23.26;45.74
15314;BME280;7757;52.626;4.746;2022-09-02T08:35:38;101487.50;;;23.34;45.69
15314;BME280;7757;52.626;4.746;2022-09-02T08:38:05;101500.22;;;22.68;47.01
15314;BME280;7757;52.626;4.746;2022-09-02T08:40:36;101489.53;;;22.84;46.41
15314;BME280;7757;52.626;4.746;2022-09-02T08:43:09;101490.38;;;23.06;46.30
15314;BME280;7757;52.626;4.746;2022-09-02T08:45:40;101490.59;;;22.83;46.14
15314;BME280;7757;52.626;4.746;2022-09-02T08:48:14;101483.81;;;23.02;46.59
15314;BME280;7757;52.626;4.746;2022-09-02T08:50:44;101485.19;;;23.04;45.60
15314;BME280;7757;52.626;4.746;2022-09-02T08:53:16;101486.59;;;23.28;46.04
15314;BME280;7757;52.626;4.746;2022-09-02T08:55:49;101490.94;;;22.86;46.34
15314;BME280;7757;52.626;4.746;2022-09-02T08:58:20;101491.16;;;23.01;46.93
15314;BME280;7757;52.626;4.746;2022-09-02T09:00:51;101486.09;;;23.31;46.31
15314;BME280;7757;52.626;4.746;2022-09-02T09:03:27;101479.47;;;22.51;47.64
15314;BME280;7757;52.626;4.746;2022-09-02T09:06:01;101481.00;;;22.97;46.97
15314;BME280;7757;52.626;4.746;2022-09-02T09:08:34;101483.97;;;22.95;47.08
15314;BME280;7757;52.626;4.746;2022-09-02T09:11:09;101481.38;;;23.44;45.73
15314;BME280;7757;52.626;4.746;2022-09-02T09:13:46;101483.81;;;23.02;46.52
15314;BME280;7757;52.626;4.746;2022-09-02T09:16:27;101479.66;;;23.21;46.90
15314;BME280;7757;52.626;4.746;2022-09-02T09:19:07;101484.56;;;23.62;46.04
15314;BME280;7757;52.626;4.746;2022-09-02T09:21:36;101479.88;;;23.58;46.04
15314;BME280;7757;52.626;4.746;2022-09-02T09:24:08;101482.28;;;23.32;46.59
15314;BME280;7757;52.626;4.746;2022-09-02T09:26:38;101468.56;;;23.06;47.28
15314;BME280;7757;52.626;4.746;2022-09-02T09:29:06;101478.94;;;23.47;46.44
15314;BME280;7757;52.626;4.746;2022-09-02T09:31:34;101471.94;;;23.56;46.17
15314;BME280;7757;52.626;4.746;2022-09-02T09:34:05;101474.66;;;23.56;46.11
15314;BME280;7757;52.626;4.746;2022-09-02T09:36:48;101469.94;;;23.47;46.20
15314;BME280;7757;52.626;4.746;2022-09-02T09:39:21;101462.72;;;23.62;45.62
15314;BME280;7757;52.626;4.746;2022-09-02T09:41:49;101467.41;;;23.40;46.50
15314;BME280;7757;52.626;4.746;2022-09-02T09:44:35;101469.63;;;23.43;46.27
15314;BME280;7757;52.626;4.746;2022-09-02T09:47:04;101466.69;;;23.50;46.51
15314;BME280;7757;52.626;4.746;2022-09-02T09:49:34;101472.44;;;23.31;46.82
15314;BME280;7757;52.626;4.746;2022-09-02T09:52:01;101467.13;;;23.20;46.90
15314;BME280;7757;52.626;4.746;2022-09-02T09:54:27;101465.91;;;23.54;46.73
15314;BME280;7757;52.626;4.746;2022-09-02T09:56:54;101463.84;;;23.40;46.46
15314;BME280;7757;52.626;4.746;2022-09-02T09:59:37;101455.03;;;23.59;46.01
15314;BME280;7757;52.626;4.746;2022-09-02T10:02:05;101451.44;;;23.54;46.62
15314;BME280;7757;52.626;4.746;2022-09-02T10:04:37;101460.81;;;23.63;46.20
15314;BME280;7757;52.626;4.746;2022-09-02T10:07:04;101451.06;;;23.45;46.18
15314;BME280;7757;52.626;4.746;2022-09-02T10:09:35;101451.56;;;23.64;46.31
15314;BME280;7757;52.626;4.746;2022-09-02T10:12:03;101452.78;;;23.78;46.33
15314;BME280;7757;52.626;4.746;2022-09-02T10:14:35;101452.63;;;23.63;46.48
15314;BME280;7757;52.626;4.746;2022-09-02T10:17:14;101455.78;;;23.50;47.00
15314;BME280;7757;52.626;4.746;2022-09-02T10:19:51;101448.13;;;23.52;46.50
15314;BME280;7757;52.626;4.746;2022-09-02T10:22:35;101444.94;;;23.60;46.97
15314;BME280;7757;52.626;4.746;2022-09-02T10:25:11;101441.66;;;23.84;46.20
15314;BME280;7757;52.626;4.746;2022-09-02T10:27:50;101436.66;;;24.08;45.67
15314;BME280;7757;52.626;4.746;2022-09-02T10:30:21;101444.38;;;23.84;46.93
15314;BME280;7757;52.626;4.746;2022-09-02T10:33:09;101436.84;;;23.97;46.29
15314;BME280;7757;52.626;4.746;2022-09-02T10:35:41;101436.22;;;24.16;46.12
15314;BME280;7757;52.626;4.746;2022-09-02T10:38:22;101432.66;;;23.89;47.41
15314;BME280;7757;52.626;4.746;2022-09-02T10:40:56;101439.63;;;24.02;46.88
15314;BME280;7757;52.626;4.746;2022-09-02T10:43:37;101442.38;;;24.07;46.67
15314;BME280;7757;52.626;4.746;2022-09-02T10:46:08;101438.75;;;23.69;47.00
15314;BME280;7757;52.626;4.746;2022-09-02T10:48:45;101432.13;;;24.19;46.16
15314;BME280;7757;52.626;4.746;2022-09-02T10:51:24;101422.38;;;24.33;45.82
15314;BME280;7757;52.626;4.746;2022-09-02T10:54:03;101432.28;;;24.07;46.29
15314;BME280;7757;52.626;4.746;2022-09-02T10:56:39;101436.84;;;23.97;46.57
15314;BME280;7757;52.626;4.746;2022-09-02T10:59:11;101420.34;;;24.13;46.07
15314;BME280;7757;52.626;4.746;2022-09-02T11:01:42;101426.00;;;23.80;47.10
15314;BME280;7757;52.626;4.746;2022-09-02T11:04:15;101420.19;;;24.30;45.67
15314;BME280;7757;52.626;4.746;2022-09-02T11:06:46;101418.41;;;24.51;45.40
15314;BME280;7757;52.626;4.746;2022-09-02T11:09:25;101419.13;;;24.36;45.72
15314;BME280;7757;52.626;4.746;2022-09-02T11:11:56;101413.50;;;24.53;45.21
15314;BME280;7757;52.626;4.746;2022-09-02T11:14:26;101418.22;;;24.20;46.35
15314;BME280;7757;52.626;4.746;2022-09-02T11:16:59;101407.59;;;24.24;45.75
15314;BME280;7757;52.626;4.746;2022-09-02T11:19:32;101413.47;;;24.11;46.08
15314;BME280;7757;52.626;4.746;2022-09-02T11:22:10;101411.00;;;24.46;45.90
15314;BME280;7757;52.626;4.746;2022-09-02T11:24:44;101413.41;;;24.37;45.46
15314;BME280;7757;52.626;4.746;2022-09-02T11:27:28;101402.78;;;24.41;45.04
15314;BME280;7757;52.626;4.746;2022-09-02T11:30:01;101395.31;;;24.31;45.76
15314;BME280;7757;52.626;4.746;2022-09-02T11:32:35;101392.16;;;24.50;45.00
15314;BME280;7757;52.626;4.746;2022-09-02T11:35:06;101397.66;;;24.60;45.05
15314;BME280;7757;52.626;4.746;2022-09-02T11:37:41;101391.84;;;24.46;45.64
15314;BME280;7757;52.626;4.746;2022-09-02T11:40:11;101395.88;;;24.33;45.44
15314;BME280;7757;52.626;4.746;2022-09-02T11:43:01;101393.31;;;24.64;45.21
15314;BME280;7757;52.626;4.746;2022-09-02T11:45:42;101394.59;;;24.88;44.83
15314;BME280;7757;52.626;4.746;2022-09-02T11:51:31;101384.91;;;24.75;44.29
15314;BME280;7757;52.626;4.746;2022-09-02T11:54:04;101379.78;;;24.84;44.66
15314;BME280;7757;52.626;4.746;2022-09-02T11:56:36;101371.44;;;24.59;45.29
15314;BME280;7757;52.626;4.746;2022-09-02T11:59:05;101369.69;;;24.48;45.22
15314;BME280;7757;52.626;4.746;2022-09-02T12:01:34;101366.66;;;24.39;45.61
15314;BME280;7757;52.626;4.746;2022-09-02T12:04:04;101366.38;;;24.82;44.60
15314;BME280;7757;52.626;4.746;2022-09-02T12:06:31;101362.03;;;24.91;44.62
15314;BME280;7757;52.626;4.746;2022-09-02T12:09:08;101362.53;;;24.83;44.00
15314;BME280;7757;52.626;4.746;2022-09-02T12:11:47;101358.91;;;24.73;44.68
15314;BME280;7757;52.626;4.746;2022-09-02T12:17:33;101359.53;;;24.90;42.89
15314;BME280;7757;52.626;4.746;2022-09-02T12:20:01;101355.94;;;24.79;42.91
15314;BME280;7757;52.626;4.746;2022-09-02T12:22:36;101350.78;;;24.83;43.20
15314;BME280;7757;52.626;4.746;2022-09-02T12:25:36;101356.34;;;25.08;42.35
15314;BME280;7757;52.626;4.746;2022-09-02T12:28:24;101344.78;;;24.91;42.70
15314;BME280;7757;52.626;4.746;2022-09-02T12:31:10;101346.41;;;24.92;43.20
15314;BME280;7757;52.626;4.746;2022-09-02T12:33:40;101337.41;;;25.02;43.22
15314;BME280;7757;52.626;4.746;2022-09-02T12:36:08;101341.25;;;25.01;43.36
15314;BME280;7757;52.626;4.746;2022-09-02T12:38:36;101344.25;;;24.99;42.47
15314;BME280;7757;52.626;4.746;2022-09-02T12:41:27;101338.28;;;25.17;42.66
15314;BME280;7757;52.626;4.746;2022-09-02T12:44:19;101334.19;;;25.25;42.61
15314;BME280;7757;52.626;4.746;2022-09-02T12:47:04;101338.28;;;25.27;42.70
15314;BME280;7757;52.626;4.746;2022-09-02T12:49:59;101336.69;;;25.41;42.34
15314;BME280;7757;52.626;4.746;2022-09-02T12:52:39;101327.88;;;25.09;42.34
15314;BME280;7757;52.626;4.746;2022-09-02T12:55:12;101328.19;;;25.33;42.13
15314;BME280;7757;52.626;4.746;2022-09-02T12:57:44;101330.06;;;25.27;42.74
15314;BME280;7757;52.626;4.746;2022-09-02T13:00:13;101317.84;;;25.50;42.40
15314;BME280;7757;52.626;4.746;2022-09-02T13:02:50;101318.66;;;25.61;41.78
15314;BME280;7757;52.626;4.746;2022-09-02T13:05:24;101316.69;;;25.41;41.85
15314;BME280;7757;52.626;4.746;2022-09-02T13:08:12;101312.03;;;25.46;41.65
15314;BME280;7757;52.626;4.746;2022-09-02T13:11:21;101317.25;;;25.48;41.82
15314;BME280;7757;52.626;4.746;2022-09-02T13:14:32;101299.47;;;25.56;41.30
15314;BME280;7757;52.626;4.746;2022-09-02T13:17:13;101312.88;;;25.52;41.60
15314;BME280;7757;52.626;4.746;2022-09-02T13:20:07;101301.63;;;25.38;41.66
15314;BME280;7757;52.626;4.746;2022-09-02T13:22:54;101304.91;;;25.45;41.56